sensor_id;sensor_type;location;lat;lon;timestamp;P1;durP1;ratioP1;P2;durP2;ratioP2
14965;SDS011;7577;45.226;5.798;2023-07-22T00:02:22;2.63;;;2.23;;
14965;SDS011;7577;45.226;5.798;2023-07-22T00:04:52;2.10;;;1.80;;
14965;SDS011;7577;45.226;5.798;2023-07-22T00:07:22;2.30;;;1.77;;
14965;SDS011;7577;45.226;5.798;2023-07-22T00:09:52;2.53;;;2.00;;
14965;SDS011;7577;45.226;5.798;2023-07-22T00:12:22;1.92;;;1.60;;
14965;SDS011;7577;45.226;5.798;2023-07-22T00:14:52;1.85;;;1.67;;
14965;SDS011;7577;45.226;5.798;2023-07-22T00:17:22;2.03;;;1.67;;
14965;SDS011;7577;45.226;5.798;2023-07-22T00:19:53;1.77;;;1.67;;
14965;SDS011;7577;45.226;5.798;2023-07-22T00:22:23;1.80;;;1.70;;
14965;SDS011;7577;45.226;5.798;2023-07-22T00:24:54;2.00;;;1.80;;
14965;SDS011;7577;45.226;5.798;2023-07-22T00:27:32;2.30;;;1.83;;
14965;SDS011;7577;45.226;5.798;2023-07-22T00:30:03;1.80;;;1.70;;
14965;SDS011;7577;45.226;5.798;2023-07-22T00:32:35;2.17;;;1.70;;
14965;SDS011;7577;45.226;5.798;2023-07-22T00:35:12;2.33;;;1.93;;
14965;SDS011;7577;45.226;5.798;2023-07-22T00:37:43;1.70;;;1.60;;
14965;SDS011;7577;45.226;5.798;2023-07-22T00:40:13;1.57;;;1.45;;
14965;SDS011;7577;45.226;5.798;2023-07-22T00:42:51;2.03;;;1.83;;
14965;SDS011;7577;45.226;5.798;2023-07-22T00:45:21;2.67;;;1.90;;
14965;SDS011;7577;45.226;5.798;2023-07-22T00:47:51;2.43;;;1.93;;
14965;SDS011;7577;45.226;5.798;2023-07-22T00:50:22;1.80;;;1.70;;
14965;SDS011;7577;45.226;5.798;2023-07-22T00:52:54;1.90;;;1.67;;
14965;SDS011;7577;45.226;5.798;2023-07-22T00:55:31;2.13;;;1.93;;
14965;SDS011;7577;45.226;5.798;2023-07-22T00:58:03;2.07;;;1.67;;
14965;SDS011;7577;45.226;5.798;2023-07-22T01:00:34;1.72;;;1.62;;
14965;SDS011;7577;45.226;5.798;2023-07-22T01:03:04;3.30;;;2.10;;
14965;SDS011;7577;45.226;5.798;2023-07-22T01:05:35;3.02;;;1.82;;
14965;SDS011;7577;45.226;5.798;2023-07-22T01:08:05;1.87;;;1.77;;
14965;SDS011;7577;45.226;5.798;2023-07-22T01:10:35;2.40;;;2.00;;
14965;SDS011;7577;45.226;5.798;2023-07-22T01:13:06;2.67;;;1.77;;
14965;SDS011;7577;45.226;5.798;2023-07-22T01:15:36;1.80;;;1.70;;
14965;SDS011;7577;45.226;5.798;2023-07-22T01:18:14;2.03;;;1.80;;
14965;SDS011;7577;45.226;5.798;2023-07-22T01:20:44;2.15;;;1.85;;
14965;SDS011;7577;45.226;5.798;2023-07-22T01:23:15;2.03;;;1.63;;
14965;SDS011;7577;45.226;5.798;2023-07-22T01:25:46;2.00;;;1.80;;
14965;SDS011;7577;45.226;5.798;2023-07-22T01:28:17;1.75;;;1.62;;
14965;SDS011;7577;45.226;5.798;2023-07-22T01:30:49;2.92;;;2.00;;
14965;SDS011;7577;45.226;5.798;2023-07-22T01:33:18;2.13;;;1.90;;
14965;SDS011;7577;45.226;5.798;2023-07-22T01:35:49;2.10;;;1.90;;
14965;SDS011;7577;45.226;5.798;2023-07-22T01:38:19;2.43;;;1.90;;
14965;SDS011;7577;45.226;5.798;2023-07-22T01:40:57;2.93;;;2.10;;
14965;SDS011;7577;45.226;5.798;2023-07-22T01:43:27;1.70;;;1.60;;
14965;SDS011;7577;45.226;5.798;2023-07-22T01:45:57;2.10;;;1.90;;
14965;SDS011;7577;45.226;5.798;2023-07-22T01:48:27;2.50;;;1.63;;
14965;SDS011;7577;45.226;5.798;2023-07-22T01:50:56;1.93;;;1.60;;
14965;SDS011;7577;45.226;5.798;2023-07-22T01:53:26;1.90;;;1.80;;
14965;SDS011;7577;45.226;5.798;2023-07-22T01:55:56;1.93;;;1.83;;
14965;SDS011;7577;45.226;5.798;2023-07-22T01:58:26;3.63;;;2.03;;
14965;SDS011;7577;45.226;5.798;2023-07-22T02:00:56;2.17;;;1.98;;
14965;SDS011;7577;45.226;5.798;2023-07-22T02:03:27;1.80;;;1.67;;
14965;SDS011;7577;45.226;5.798;2023-07-22T02:06:01;2.00;;;1.77;;
14965;SDS011;7577;45.226;5.798;2023-07-22T02:08:32;3.03;;;1.87;;
14965;SDS011;7577;45.226;5.798;2023-07-22T02:11:04;2.00;;;1.77;;
14965;SDS011;7577;45.226;5.798;2023-07-22T02:13:36;2.20;;;1.80;;
14965;SDS011;7577;45.226;5.798;2023-07-22T02:16:06;1.90;;;1.53;;
14965;SDS011;7577;45.226;5.798;2023-07-22T02:18:38;2.10;;;1.90;;
14965;SDS011;7577;45.226;5.798;2023-07-22T02:21:09;1.93;;;1.53;;
14965;SDS011;7577;45.226;5.798;2023-07-22T02:23:39;1.90;;;1.70;;
14965;SDS011;7577;45.226;5.798;2023-07-22T02:26:10;2.77;;;2.00;;
14965;SDS011;7577;45.226;5.798;2023-07-22T02:28:47;1.97;;;1.80;;
14965;SDS011;7577;45.226;5.798;2023-07-22T02:31:18;2.77;;;1.97;;
14965;SDS011;7577;45.226;5.798;2023-07-22T02:33:49;2.10;;;1.80;;
14965;SDS011;7577;45.226;5.798;2023-07-22T02:36:30;2.20;;;1.47;;
14965;SDS011;7577;45.226;5.798;2023-07-22T02:39:00;1.67;;;1.57;;
14965;SDS011;7577;45.226;5.798;2023-07-22T02:41:31;3.63;;;1.93;;
14965;SDS011;7577;45.226;5.798;2023-07-22T02:44:01;2.67;;;2.00;;
14965;SDS011;7577;45.226;5.798;2023-07-22T02:46:31;1.97;;;1.77;;
14965;SDS011;7577;45.226;5.798;2023-07-22T02:49:01;3.57;;;1.90;;
14965;SDS011;7577;45.226;5.798;2023-07-22T02:51:31;2.33;;;1.87;;
14965;SDS011;7577;45.226;5.798;2023-07-22T02:54:01;2.23;;;1.90;;
14965;SDS011;7577;45.226;5.798;2023-07-22T02:56:32;2.47;;;1.80;;
14965;SDS011;7577;45.226;5.798;2023-07-22T02:59:02;1.87;;;1.77;;
14965;SDS011;7577;45.226;5.798;2023-07-22T03:01:32;2.27;;;1.90;;
14965;SDS011;7577;45.226;5.798;2023-07-22T03:04:03;1.90;;;1.70;;
14965;SDS011;7577;45.226;5.798;2023-07-22T03:06:33;2.23;;;2.00;;
14965;SDS011;7577;45.226;5.798;2023-07-22T03:09:03;2.53;;;1.80;;
14965;SDS011;7577;45.226;5.798;2023-07-22T03:11:34;2.00;;;1.90;;
14965;SDS011;7577;45.226;5.798;2023-07-22T03:14:04;2.17;;;1.93;;
14965;SDS011;7577;45.226;5.798;2023-07-22T03:16:34;2.83;;;1.90;;
14965;SDS011;7577;45.226;5.798;2023-07-22T03:19:12;1.87;;;1.77;;
14965;SDS011;7577;45.226;5.798;2023-07-22T03:21:42;3.03;;;2.10;;
14965;SDS011;7577;45.226;5.798;2023-07-22T03:24:12;1.97;;;1.77;;
14965;SDS011;7577;45.226;5.798;2023-07-22T03:26:41;2.00;;;1.80;;
14965;SDS011;7577;45.226;5.798;2023-07-22T03:29:11;2.10;;;1.90;;
14965;SDS011;7577;45.226;5.798;2023-07-22T03:31:41;2.80;;;1.80;;
14965;SDS011;7577;45.226;5.798;2023-07-22T03:34:11;1.83;;;1.73;;
14965;SDS011;7577;45.226;5.798;2023-07-22T03:36:42;1.90;;;1.70;;
14965;SDS011;7577;45.226;5.798;2023-07-22T03:39:14;2.07;;;1.83;;
14965;SDS011;7577;45.226;5.798;2023-07-22T03:41:51;2.20;;;1.67;;
14965;SDS011;7577;45.226;5.798;2023-07-22T03:44:21;2.27;;;1.87;;
14965;SDS011;7577;45.226;5.798;2023-07-22T03:46:53;2.10;;;1.90;;
14965;SDS011;7577;45.226;5.798;2023-07-22T03:49:30;3.57;;;2.10;;
14965;SDS011;7577;45.226;5.798;2023-07-22T03:52:00;2.30;;;2.10;;
14965;SDS011;7577;45.226;5.798;2023-07-22T03:54:39;2.87;;;2.03;;
14965;SDS011;7577;45.226;5.798;2023-07-22T03:57:09;2.97;;;1.97;;
14965;SDS011;7577;45.226;5.798;2023-07-22T03:59:47;2.80;;;2.27;;
14965;SDS011;7577;45.226;5.798;2023-07-22T04:02:17;2.80;;;2.20;;
14965;SDS011;7577;45.226;5.798;2023-07-22T04:04:47;2.50;;;2.00;;
14965;SDS011;7577;45.226;5.798;2023-07-22T04:07:19;2.93;;;2.10;;
14965;SDS011;7577;45.226;5.798;2023-07-22T04:09:49;2.63;;;1.90;;
14965;SDS011;7577;45.226;5.798;2023-07-22T04:12:19;2.47;;;2.27;;
14965;SDS011;7577;45.226;5.798;2023-07-22T04:14:49;2.13;;;1.93;;
14965;SDS011;7577;45.226;5.798;2023-07-22T04:17:19;4.80;;;2.23;;
14965;SDS011;7577;45.226;5.798;2023-07-22T04:19:58;2.33;;;1.90;;
14965;SDS011;7577;45.226;5.798;2023-07-22T04:22:28;2.17;;;1.80;;
14965;SDS011;7577;45.226;5.798;2023-07-22T04:24:59;2.23;;;1.90;;
14965;SDS011;7577;45.226;5.798;2023-07-22T04:27:29;2.53;;;1.90;;
14965;SDS011;7577;45.226;5.798;2023-07-22T04:29:59;2.50;;;2.20;;
14965;SDS011;7577;45.226;5.798;2023-07-22T04:32:29;3.00;;;1.93;;
14965;SDS011;7577;45.226;5.798;2023-07-22T04:34:59;2.13;;;1.93;;
14965;SDS011;7577;45.226;5.798;2023-07-22T04:37:29;3.17;;;2.30;;
14965;SDS011;7577;45.226;5.798;2023-07-22T04:39:59;1.87;;;1.70;;
14965;SDS011;7577;45.226;5.798;2023-07-22T04:42:35;2.43;;;2.20;;
14965;SDS011;7577;45.226;5.798;2023-07-22T04:45:07;2.90;;;2.27;;
14965;SDS011;7577;45.226;5.798;2023-07-22T04:47:38;2.50;;;2.17;;
14965;SDS011;7577;45.226;5.798;2023-07-22T04:50:10;2.73;;;2.23;;
14965;SDS011;7577;45.226;5.798;2023-07-22T04:52:41;2.47;;;2.00;;
14965;SDS011;7577;45.226;5.798;2023-07-22T04:55:14;2.40;;;2.00;;
14965;SDS011;7577;45.226;5.798;2023-07-22T04:57:44;2.30;;;1.60;;
14965;SDS011;7577;45.226;5.798;2023-07-22T05:00:22;1.93;;;1.73;;
14965;SDS011;7577;45.226;5.798;2023-07-22T05:02:53;3.70;;;2.20;;
14965;SDS011;7577;45.226;5.798;2023-07-22T05:05:23;4.27;;;2.07;;
14965;SDS011;7577;45.226;5.798;2023-07-22T05:08:01;2.20;;;2.00;;
14965;SDS011;7577;45.226;5.798;2023-07-22T05:10:31;2.33;;;2.10;;
14965;SDS011;7577;45.226;5.798;2023-07-22T05:13:03;2.63;;;2.40;;
14965;SDS011;7577;45.226;5.798;2023-07-22T05:15:33;2.43;;;1.80;;
14965;SDS011;7577;45.226;5.798;2023-07-22T05:18:11;2.70;;;1.97;;
14965;SDS011;7577;45.226;5.798;2023-07-22T05:20:41;2.77;;;2.33;;
14965;SDS011;7577;45.226;5.798;2023-07-22T05:23:20;3.33;;;2.43;;
14965;SDS011;7577;45.226;5.798;2023-07-22T05:25:53;2.87;;;2.13;;
14965;SDS011;7577;45.226;5.798;2023-07-22T05:28:24;2.40;;;2.20;;
14965;SDS011;7577;45.226;5.798;2023-07-22T05:31:02;3.73;;;2.00;;
14965;SDS011;7577;45.226;5.798;2023-07-22T05:33:32;3.60;;;2.33;;
14965;SDS011;7577;45.226;5.798;2023-07-22T05:36:04;2.67;;;2.10;;
14965;SDS011;7577;45.226;5.798;2023-07-22T05:38:33;3.30;;;2.43;;
14965;SDS011;7577;45.226;5.798;2023-07-22T05:41:04;2.63;;;2.27;;
14965;SDS011;7577;45.226;5.798;2023-07-22T05:43:36;2.53;;;2.30;;
14965;SDS011;7577;45.226;5.798;2023-07-22T05:46:06;2.37;;;2.17;;
14965;SDS011;7577;45.226;5.798;2023-07-22T05:48:36;2.50;;;1.97;;
14965;SDS011;7577;45.226;5.798;2023-07-22T05:51:07;3.53;;;2.30;;
14965;SDS011;7577;45.226;5.798;2023-07-22T05:53:38;3.37;;;2.30;;
14965;SDS011;7577;45.226;5.798;2023-07-22T05:56:08;3.47;;;2.37;;
14965;SDS011;7577;45.226;5.798;2023-07-22T05:58:38;2.40;;;1.87;;
14965;SDS011;7577;45.226;5.798;2023-07-22T06:01:08;2.67;;;1.83;;
14965;SDS011;7577;45.226;5.798;2023-07-22T06:03:39;2.20;;;2.00;;
14965;SDS011;7577;45.226;5.798;2023-07-22T06:06:10;2.27;;;1.83;;
14965;SDS011;7577;45.226;5.798;2023-07-22T06:08:40;2.10;;;1.90;;
14965;SDS011;7577;45.226;5.798;2023-07-22T06:11:10;2.90;;;2.33;;
14965;SDS011;7577;45.226;5.798;2023-07-22T06:13:48;2.93;;;2.40;;
14965;SDS011;7577;45.226;5.798;2023-07-22T06:16:18;3.07;;;2.27;;
14965;SDS011;7577;45.226;5.798;2023-07-22T06:18:49;2.60;;;2.00;;
14965;SDS011;7577;45.226;5.798;2023-07-22T06:21:18;2.30;;;2.00;;
14965;SDS011;7577;45.226;5.798;2023-07-22T06:23:48;2.63;;;2.10;;
14965;SDS011;7577;45.226;5.798;2023-07-22T06:26:26;2.40;;;2.10;;
14965;SDS011;7577;45.226;5.798;2023-07-22T06:28:56;2.30;;;2.03;;
14965;SDS011;7577;45.226;5.798;2023-07-22T06:31:26;2.57;;;2.37;;
14965;SDS011;7577;45.226;5.798;2023-07-22T06:33:57;2.87;;;2.30;;
14965;SDS011;7577;45.226;5.798;2023-07-22T06:36:27;2.57;;;2.37;;
14965;SDS011;7577;45.226;5.798;2023-07-22T06:38:58;2.83;;;2.30;;
14965;SDS011;7577;45.226;5.798;2023-07-22T06:41:28;2.40;;;2.20;;
14965;SDS011;7577;45.226;5.798;2023-07-22T06:43:58;2.30;;;2.10;;
14965;SDS011;7577;45.226;5.798;2023-07-22T06:46:36;2.87;;;2.27;;
14965;SDS011;7577;45.226;5.798;2023-07-22T06:49:06;3.30;;;2.27;;
14965;SDS011;7577;45.226;5.798;2023-07-22T06:51:37;4.17;;;2.50;;
14965;SDS011;7577;45.226;5.798;2023-07-22T06:54:07;2.50;;;2.27;;
14965;SDS011;7577;45.226;5.798;2023-07-22T06:56:38;2.40;;;2.20;;
14965;SDS011;7577;45.226;5.798;2023-07-22T06:59:08;3.70;;;2.10;;
14965;SDS011;7577;45.226;5.798;2023-07-22T07:01:38;2.97;;;2.40;;
14965;SDS011;7577;45.226;5.798;2023-07-22T07:04:08;3.17;;;2.20;;
14965;SDS011;7577;45.226;5.798;2023-07-22T07:06:38;3.33;;;2.03;;
14965;SDS011;7577;45.226;5.798;2023-07-22T07:09:08;2.93;;;2.40;;
14965;SDS011;7577;45.226;5.798;2023-07-22T07:11:38;2.70;;;2.00;;
14965;SDS011;7577;45.226;5.798;2023-07-22T07:14:08;2.50;;;2.17;;
14965;SDS011;7577;45.226;5.798;2023-07-22T07:16:38;3.27;;;2.47;;
14965;SDS011;7577;45.226;5.798;2023-07-22T07:19:20;2.80;;;2.50;;
14965;SDS011;7577;45.226;5.798;2023-07-22T07:21:50;3.80;;;2.33;;
14965;SDS011;7577;45.226;5.798;2023-07-22T07:24:20;2.90;;;2.13;;
14965;SDS011;7577;45.226;5.798;2023-07-22T07:26:50;2.27;;;2.07;;
14965;SDS011;7577;45.226;5.798;2023-07-22T07:29:20;2.93;;;2.23;;
14965;SDS011;7577;45.226;5.798;2023-07-22T07:31:50;2.40;;;2.07;;
14965;SDS011;7577;45.226;5.798;2023-07-22T07:34:20;3.00;;;2.30;;
14965;SDS011;7577;45.226;5.798;2023-07-22T07:36:50;2.23;;;2.03;;
14965;SDS011;7577;45.226;5.798;2023-07-22T07:39:20;2.90;;;1.90;;
14965;SDS011;7577;45.226;5.798;2023-07-22T07:41:50;2.20;;;2.00;;
14965;SDS011;7577;45.226;5.798;2023-07-22T07:44:20;2.63;;;2.10;;
14965;SDS011;7577;45.226;5.798;2023-07-22T07:46:50;2.60;;;2.20;;
14965;SDS011;7577;45.226;5.798;2023-07-22T07:49:20;2.47;;;2.20;;
14965;SDS011;7577;45.226;5.798;2023-07-22T07:51:50;2.10;;;1.90;;
14965;SDS011;7577;45.226;5.798;2023-07-22T07:54:28;3.37;;;2.33;;
14965;SDS011;7577;45.226;5.798;2023-07-22T07:56:58;2.43;;;2.20;;
14965;SDS011;7577;45.226;5.798;2023-07-22T07:59:28;4.17;;;2.27;;
14965;SDS011;7577;45.226;5.798;2023-07-22T08:01:58;2.50;;;2.30;;
14965;SDS011;7577;45.226;5.798;2023-07-22T08:04:28;2.90;;;2.10;;
14965;SDS011;7577;45.226;5.798;2023-07-22T08:06:58;2.87;;;2.07;;
14965;SDS011;7577;45.226;5.798;2023-07-22T08:09:28;2.53;;;2.00;;
14965;SDS011;7577;45.226;5.798;2023-07-22T08:11:58;2.50;;;2.30;;
14965;SDS011;7577;45.226;5.798;2023-07-22T08:14:29;2.10;;;1.90;;
14965;SDS011;7577;45.226;5.798;2023-07-22T08:16:59;2.80;;;2.27;;
14965;SDS011;7577;45.226;5.798;2023-07-22T08:19:29;2.33;;;2.10;;
14965;SDS011;7577;45.226;5.798;2023-07-22T08:21:59;2.50;;;2.27;;
14965;SDS011;7577;45.226;5.798;2023-07-22T08:24:29;2.63;;;2.00;;
14965;SDS011;7577;45.226;5.798;2023-07-22T08:27:07;2.60;;;2.20;;
14965;SDS011;7577;45.226;5.798;2023-07-22T08:29:37;4.13;;;2.30;;
14965;SDS011;7577;45.226;5.798;2023-07-22T08:32:15;2.63;;;2.13;;
14965;SDS011;7577;45.226;5.798;2023-07-22T08:34:45;3.03;;;2.07;;
14965;SDS011;7577;45.226;5.798;2023-07-22T08:37:14;2.80;;;2.17;;
14965;SDS011;7577;45.226;5.798;2023-07-22T08:39:44;2.60;;;2.33;;
14965;SDS011;7577;45.226;5.798;2023-07-22T08:42:15;2.50;;;2.30;;
14965;SDS011;7577;45.226;5.798;2023-07-22T08:44:48;2.60;;;2.27;;
14965;SDS011;7577;45.226;5.798;2023-07-22T08:47:21;2.50;;;2.30;;
14965;SDS011;7577;45.226;5.798;2023-07-22T08:49:52;2.40;;;2.20;;
14965;SDS011;7577;45.226;5.798;2023-07-22T08:52:32;2.30;;;2.10;;
14965;SDS011;7577;45.226;5.798;2023-07-22T08:55:04;2.87;;;2.43;;
14965;SDS011;7577;45.226;5.798;2023-07-22T08:57:36;3.17;;;2.40;;
14965;SDS011;7577;45.226;5.798;2023-07-22T09:00:08;2.50;;;2.30;;
14965;SDS011;7577;45.226;5.798;2023-07-22T09:02:40;3.10;;;2.10;;
14965;SDS011;7577;45.226;5.798;2023-07-22T09:05:12;2.67;;;2.33;;
14965;SDS011;7577;45.226;5.798;2023-07-22T09:07:42;2.20;;;2.00;;
14965;SDS011;7577;45.226;5.798;2023-07-22T09:10:15;3.10;;;2.57;;
14965;SDS011;7577;45.226;5.798;2023-07-22T09:12:46;2.33;;;1.93;;
14965;SDS011;7577;45.226;5.798;2023-07-22T09:15:16;3.57;;;2.27;;
14965;SDS011;7577;45.226;5.798;2023-07-22T09:17:50;2.30;;;2.10;;
14965;SDS011;7577;45.226;5.798;2023-07-22T09:20:21;2.73;;;2.30;;
14965;SDS011;7577;45.226;5.798;2023-07-22T09:22:51;2.20;;;2.00;;
14965;SDS011;7577;45.226;5.798;2023-07-22T09:25:22;3.17;;;2.30;;
14965;SDS011;7577;45.226;5.798;2023-07-22T09:28:01;2.70;;;2.50;;
14965;SDS011;7577;45.226;5.798;2023-07-22T09:30:32;2.50;;;2.30;;
14965;SDS011;7577;45.226;5.798;2023-07-22T09:33:03;3.10;;;2.40;;
14965;SDS011;7577;45.226;5.798;2023-07-22T09:35:44;3.60;;;1.97;;
14965;SDS011;7577;45.226;5.798;2023-07-22T09:38:20;2.50;;;2.17;;
14965;SDS011;7577;45.226;5.798;2023-07-22T09:40:53;2.37;;;1.80;;
14965;SDS011;7577;45.226;5.798;2023-07-22T09:43:23;3.10;;;2.27;;
14965;SDS011;7577;45.226;5.798;2023-07-22T09:45:53;2.70;;;2.27;;
14965;SDS011;7577;45.226;5.798;2023-07-22T09:48:23;2.40;;;2.20;;
14965;SDS011;7577;45.226;5.798;2023-07-22T09:50:57;2.40;;;2.20;;
14965;SDS011;7577;45.226;5.798;2023-07-22T09:53:36;3.20;;;2.10;;
14965;SDS011;7577;45.226;5.798;2023-07-22T09:56:06;2.53;;;2.10;;
14965;SDS011;7577;45.226;5.798;2023-07-22T09:58:36;2.30;;;2.10;;
14965;SDS011;7577;45.226;5.798;2023-07-22T10:01:07;3.20;;;2.00;;
14965;SDS011;7577;45.226;5.798;2023-07-22T10:03:40;3.07;;;2.17;;
14965;SDS011;7577;45.226;5.798;2023-07-22T10:06:13;3.23;;;2.53;;
14965;SDS011;7577;45.226;5.798;2023-07-22T10:08:52;2.60;;;2.20;;
14965;SDS011;7577;45.226;5.798;2023-07-22T10:11:24;2.63;;;2.17;;
14965;SDS011;7577;45.226;5.798;2023-07-22T10:13:56;2.73;;;2.40;;
14965;SDS011;7577;45.226;5.798;2023-07-22T10:16:34;2.47;;;2.20;;
14965;SDS011;7577;45.226;5.798;2023-07-22T10:19:04;2.73;;;2.20;;
14965;SDS011;7577;45.226;5.798;2023-07-22T10:21:36;2.30;;;2.10;;
14965;SDS011;7577;45.226;5.798;2023-07-22T10:24:08;2.30;;;2.10;;
14965;SDS011;7577;45.226;5.798;2023-07-22T10:26:39;2.87;;;2.30;;
14965;SDS011;7577;45.226;5.798;2023-07-22T10:29:17;3.03;;;2.00;;
14965;SDS011;7577;45.226;5.798;2023-07-22T10:31:49;3.30;;;2.30;;
14965;SDS011;7577;45.226;5.798;2023-07-22T10:34:21;2.43;;;2.10;;
14965;SDS011;7577;45.226;5.798;2023-07-22T10:36:53;1.93;;;1.80;;
14965;SDS011;7577;45.226;5.798;2023-07-22T10:39:25;2.20;;;2.00;;
14965;SDS011;7577;45.226;5.798;2023-07-22T10:42:00;2.20;;;1.93;;
14965;SDS011;7577;45.226;5.798;2023-07-22T10:44:31;2.70;;;2.13;;
14965;SDS011;7577;45.226;5.798;2023-07-22T10:47:03;2.27;;;2.07;;
14965;SDS011;7577;45.226;5.798;2023-07-22T10:49:44;2.03;;;1.80;;
14965;SDS011;7577;45.226;5.798;2023-07-22T10:52:16;2.20;;;2.00;;
14965;SDS011;7577;45.226;5.798;2023-07-22T10:55:15;2.20;;;2.00;;
14965;SDS011;7577;45.226;5.798;2023-07-22T10:57:49;2.00;;;1.80;;
14965;SDS011;7577;45.226;5.798;2023-07-22T11:00:22;2.47;;;2.17;;
14965;SDS011;7577;45.226;5.798;2023-07-22T11:03:11;2.37;;;1.90;;
14965;SDS011;7577;45.226;5.798;2023-07-22T11:05:49;2.80;;;2.23;;
14965;SDS011;7577;45.226;5.798;2023-07-22T11:08:38;2.40;;;2.20;;
14965;SDS011;7577;45.226;5.798;2023-07-22T11:11:10;2.87;;;2.40;;
14965;SDS011;7577;45.226;5.798;2023-07-22T11:13:40;2.10;;;1.90;;
14965;SDS011;7577;45.226;5.798;2023-07-22T11:16:11;2.37;;;2.17;;
14965;SDS011;7577;45.226;5.798;2023-07-22T11:18:49;2.60;;;2.10;;
14965;SDS011;7577;45.226;5.798;2023-07-22T11:21:19;1.73;;;1.60;;
14965;SDS011;7577;45.226;5.798;2023-07-22T11:23:50;2.37;;;2.00;;
14965;SDS011;7577;45.226;5.798;2023-07-22T11:26:21;2.10;;;1.90;;
14965;SDS011;7577;45.226;5.798;2023-07-22T11:28:51;2.10;;;1.87;;
14965;SDS011;7577;45.226;5.798;2023-07-22T11:31:22;2.27;;;1.93;;
14965;SDS011;7577;45.226;5.798;2023-07-22T11:33:53;2.00;;;1.80;;
14965;SDS011;7577;45.226;5.798;2023-07-22T11:36:25;2.53;;;2.33;;
14965;SDS011;7577;45.226;5.798;2023-07-22T11:39:01;2.10;;;1.90;;
14965;SDS011;7577;45.226;5.798;2023-07-22T11:41:33;2.87;;;2.17;;
14965;SDS011;7577;45.226;5.798;2023-07-22T11:44:04;2.43;;;2.03;;
14965;SDS011;7577;45.226;5.798;2023-07-22T11:46:36;2.47;;;2.13;;
14965;SDS011;7577;45.226;5.798;2023-07-22T11:49:22;2.40;;;2.20;;
14965;SDS011;7577;45.226;5.798;2023-07-22T11:51:57;3.77;;;2.40;;
14965;SDS011;7577;45.226;5.798;2023-07-22T11:54:28;2.83;;;2.37;;
14965;SDS011;7577;45.226;5.798;2023-07-22T11:57:10;2.80;;;2.50;;
14965;SDS011;7577;45.226;5.798;2023-07-22T11:59:48;2.40;;;2.20;;
14965;SDS011;7577;45.226;5.798;2023-07-22T12:02:20;2.97;;;2.50;;
14965;SDS011;7577;45.226;5.798;2023-07-22T12:04:52;2.57;;;2.37;;
14965;SDS011;7577;45.226;5.798;2023-07-22T12:07:23;2.87;;;2.40;;
14965;SDS011;7577;45.226;5.798;2023-07-22T12:09:55;2.40;;;2.10;;
14965;SDS011;7577;45.226;5.798;2023-07-22T12:12:32;2.33;;;2.00;;
14965;SDS011;7577;45.226;5.798;2023-07-22T12:15:08;2.50;;;2.17;;
14965;SDS011;7577;45.226;5.798;2023-07-22T12:17:46;2.60;;;2.33;;
14965;SDS011;7577;45.226;5.798;2023-07-22T12:20:18;2.57;;;2.37;;
14965;SDS011;7577;45.226;5.798;2023-07-22T12:22:59;2.47;;;2.23;;
14965;SDS011;7577;45.226;5.798;2023-07-22T12:25:31;3.03;;;2.20;;
14965;SDS011;7577;45.226;5.798;2023-07-22T12:28:02;3.03;;;2.10;;
14965;SDS011;7577;45.226;5.798;2023-07-22T12:30:33;2.60;;;2.27;;
14965;SDS011;7577;45.226;5.798;2023-07-22T12:33:04;2.40;;;2.20;;
14965;SDS011;7577;45.226;5.798;2023-07-22T12:35:34;2.67;;;2.03;;
14965;SDS011;7577;45.226;5.798;2023-07-22T12:38:13;2.30;;;2.10;;
14965;SDS011;7577;45.226;5.798;2023-07-22T12:40:44;2.80;;;2.27;;
14965;SDS011;7577;45.226;5.798;2023-07-22T12:43:14;2.20;;;2.00;;
14965;SDS011;7577;45.226;5.798;2023-07-22T12:45:44;2.10;;;1.90;;
14965;SDS011;7577;45.226;5.798;2023-07-22T12:48:14;2.30;;;2.10;;
14965;SDS011;7577;45.226;5.798;2023-07-22T12:50:45;2.10;;;1.93;;
14965;SDS011;7577;45.226;5.798;2023-07-22T12:53:15;2.10;;;1.90;;
14965;SDS011;7577;45.226;5.798;2023-07-22T12:55:45;2.37;;;2.00;;
14965;SDS011;7577;45.226;5.798;2023-07-22T12:58:15;2.40;;;2.20;;
14965;SDS011;7577;45.226;5.798;2023-07-22T13:00:45;2.00;;;1.80;;
14965;SDS011;7577;45.226;5.798;2023-07-22T13:03:15;2.00;;;1.80;;
14965;SDS011;7577;45.226;5.798;2023-07-22T13:05:45;2.20;;;2.00;;
14965;SDS011;7577;45.226;5.798;2023-07-22T13:08:16;2.13;;;1.93;;
14965;SDS011;7577;45.226;5.798;2023-07-22T13:10:46;2.73;;;2.07;;
14965;SDS011;7577;45.226;5.798;2023-07-22T13:13:17;1.93;;;1.70;;
14965;SDS011;7577;45.226;5.798;2023-07-22T13:15:47;2.53;;;1.60;;
14965;SDS011;7577;45.226;5.798;2023-07-22T13:18:24;2.40;;;1.80;;
14965;SDS011;7577;45.226;5.798;2023-07-22T13:20:54;2.67;;;2.03;;
14965;SDS011;7577;45.226;5.798;2023-07-22T13:23:24;2.47;;;1.90;;
14965;SDS011;7577;45.226;5.798;2023-07-22T13:25:54;2.30;;;2.00;;
14965;SDS011;7577;45.226;5.798;2023-07-22T13:28:24;1.72;;;1.62;;
14965;SDS011;7577;45.226;5.798;2023-07-22T13:30:54;2.10;;;1.90;;
14965;SDS011;7577;45.226;5.798;2023-07-22T13:33:24;2.10;;;1.83;;
14965;SDS011;7577;45.226;5.798;2023-07-22T13:35:54;1.77;;;1.67;;
14965;SDS011;7577;45.226;5.798;2023-07-22T13:38:25;2.50;;;1.87;;
14965;SDS011;7577;45.226;5.798;2023-07-22T13:40:55;2.13;;;1.70;;
14965;SDS011;7577;45.226;5.798;2023-07-22T13:43:25;1.90;;;1.80;;
14965;SDS011;7577;45.226;5.798;2023-07-22T13:45:56;1.90;;;1.70;;
14965;SDS011;7577;45.226;5.798;2023-07-22T13:48:26;2.90;;;2.00;;
14965;SDS011;7577;45.226;5.798;2023-07-22T13:50:56;2.27;;;1.90;;
14965;SDS011;7577;45.226;5.798;2023-07-22T13:53:26;1.67;;;1.57;;
14965;SDS011;7577;45.226;5.798;2023-07-22T13:55:56;1.70;;;1.60;;
14965;SDS011;7577;45.226;5.798;2023-07-22T13:58:27;2.37;;;2.00;;
14965;SDS011;7577;45.226;5.798;2023-07-22T14:00:57;2.87;;;1.90;;
14965;SDS011;7577;45.226;5.798;2023-07-22T14:03:27;1.82;;;1.50;;
14965;SDS011;7577;45.226;5.798;2023-07-22T14:05:57;2.20;;;2.00;;
14965;SDS011;7577;45.226;5.798;2023-07-22T14:08:27;1.82;;;1.50;;
14965;SDS011;7577;45.226;5.798;2023-07-22T14:11:04;2.03;;;1.83;;
14965;SDS011;7577;45.226;5.798;2023-07-22T14:13:34;1.62;;;1.45;;
14965;SDS011;7577;45.226;5.798;2023-07-22T14:16:04;1.63;;;1.53;;
14965;SDS011;7577;45.226;5.798;2023-07-22T14:18:34;1.73;;;1.63;;
14965;SDS011;7577;45.226;5.798;2023-07-22T14:21:12;1.65;;;1.55;;
14965;SDS011;7577;45.226;5.798;2023-07-22T14:23:42;2.12;;;1.60;;
14965;SDS011;7577;45.226;5.798;2023-07-22T14:26:12;1.73;;;1.63;;
14965;SDS011;7577;45.226;5.798;2023-07-22T14:28:41;1.90;;;1.70;;
14965;SDS011;7577;45.226;5.798;2023-07-22T14:31:12;1.90;;;1.80;;
14965;SDS011;7577;45.226;5.798;2023-07-22T14:33:42;2.92;;;1.60;;
14965;SDS011;7577;45.226;5.798;2023-07-22T14:36:12;1.90;;;1.70;;
14965;SDS011;7577;45.226;5.798;2023-07-22T14:38:42;1.62;;;1.50;;
14965;SDS011;7577;45.226;5.798;2023-07-22T14:41:12;2.25;;;1.60;;
14965;SDS011;7577;45.226;5.798;2023-07-22T14:43:42;2.60;;;1.80;;
14965;SDS011;7577;45.226;5.798;2023-07-22T14:46:12;1.42;;;1.32;;
14965;SDS011;7577;45.226;5.798;2023-07-22T14:48:43;3.10;;;1.95;;
14965;SDS011;7577;45.226;5.798;2023-07-22T14:51:13;1.97;;;1.77;;
14965;SDS011;7577;45.226;5.798;2023-07-22T14:53:43;2.02;;;1.50;;
14965;SDS011;7577;45.226;5.798;2023-07-22T14:56:13;1.90;;;1.70;;
14965;SDS011;7577;45.226;5.798;2023-07-22T14:58:43;1.65;;;1.50;;
14965;SDS011;7577;45.226;5.798;2023-07-22T15:01:13;2.17;;;1.47;;
14965;SDS011;7577;45.226;5.798;2023-07-22T15:03:43;1.50;;;1.40;;
14965;SDS011;7577;45.226;5.798;2023-07-22T15:06:14;1.70;;;1.40;;
14965;SDS011;7577;45.226;5.798;2023-07-22T15:08:45;2.47;;;1.50;;
14965;SDS011;7577;45.226;5.798;2023-07-22T15:11:15;1.87;;;1.70;;
14965;SDS011;7577;45.226;5.798;2023-07-22T15:13:45;1.57;;;1.45;;
14965;SDS011;7577;45.226;5.798;2023-07-22T15:16:15;1.70;;;1.60;;
14965;SDS011;7577;45.226;5.798;2023-07-22T15:18:45;1.72;;;1.50;;
14965;SDS011;7577;45.226;5.798;2023-07-22T15:21:23;1.52;;;1.40;;
14965;SDS011;7577;45.226;5.798;2023-07-22T15:23:54;1.70;;;1.60;;
14965;SDS011;7577;45.226;5.798;2023-07-22T15:26:24;2.02;;;1.65;;
14965;SDS011;7577;45.226;5.798;2023-07-22T15:28:54;1.60;;;1.50;;